createdAt,value
2024-03-19T00:00:54.003Z,6.92
2024-03-19T00:01:54.005Z,6.92
2024-03-19T00:02:54.048Z,6.95
2024-03-19T00:03:54.044Z,6.97
2024-03-19T00:04:54.080Z,6.95
2024-03-19T00:05:54.070Z,6.93
2024-03-19T00:06:54.136Z,6.85
2024-03-19T00:07:54.099Z,6.82
2024-03-19T00:08:54.117Z,6.78
2024-03-19T00:09:54.135Z,6.78
2024-03-19T00:10:54.146Z,6.79
2024-03-19T00:11:54.190Z,6.81
2024-03-19T00:12:54.177Z,6.78
2024-03-19T00:13:54.206Z,6.81
2024-03-19T00:14:54.212Z,6.78
2024-03-19T00:15:54.244Z,6.88
2024-03-19T00:16:54.242Z,6.79
2024-03-19T00:17:54.267Z,6.85
2024-03-19T00:18:54.295Z,6.81
2024-03-19T00:19:54.312Z,6.87
2024-03-19T00:20:54.304Z,6.77
2024-03-19T00:21:54.326Z,6.74
2024-03-19T00:22:54.330Z,6.79
2024-03-19T00:23:54.417Z,6.64
2024-03-19T00:24:54.364Z,6.72
2024-03-19T00:25:54.392Z,6.64
2024-03-19T00:26:54.400Z,6.67
2024-03-19T00:27:54.414Z,6.72
2024-03-19T00:28:54.457Z,6.64
2024-03-19T00:29:54.480Z,6.69
2024-03-19T00:30:54.476Z,6.69
2024-03-19T00:31:54.475Z,6.66
2024-03-19T00:32:54.487Z,6.64
2024-03-19T00:33:54.537Z,6.72
2024-03-19T00:34:54.541Z,6.69
2024-03-19T00:35:54.538Z,6.67
2024-03-19T00:36:54.592Z,6.69
2024-03-19T00:37:54.569Z,6.66
2024-03-19T00:38:54.584Z,6.66
2024-03-19T00:39:54.605Z,6.59
2024-03-19T00:40:54.623Z,6.59
2024-03-19T00:41:54.636Z,6.52
2024-03-19T00:42:54.656Z,6.59
2024-03-19T00:43:54.663Z,6.62
2024-03-19T00:44:54.680Z,6.59
2024-03-19T00:45:54.713Z,6.57
2024-03-19T00:46:54.721Z,6.41
2024-03-19T00:47:54.730Z,6.49
2024-03-19T00:48:54.744Z,6.39
2024-03-19T00:49:54.786Z,6.45
2024-03-19T00:50:54.772Z,6.42
2024-03-19T00:51:54.790Z,6.33
2024-03-19T00:52:54.802Z,6.33
2024-03-19T00:53:54.850Z,6.31
2024-03-19T00:54:54.887Z,6.38
2024-03-19T00:55:54.846Z,6.44
2024-03-19T00:56:54.869Z,6.39
2024-03-19T00:57:54.901Z,6.46
2024-03-19T00:58:54.906Z,6.45
2024-03-19T00:59:54.943Z,6.44
2024-03-19T01:00:54.947Z,6.41
2024-03-19T01:01:54.942Z,6.42
2024-03-19T01:02:54.955Z,6.42
2024-03-19T01:03:54.990Z,6.45
2024-03-19T01:04:56.467Z,6.46
2024-03-19T01:05:55.032Z,6.42
2024-03-19T01:06:55.017Z,6.39
2024-03-19T01:07:55.041Z,6.31
2024-03-19T01:08:55.054Z,6.28
2024-03-19T01:09:55.062Z,6.30
2024-03-19T01:10:55.106Z,6.27
2024-03-19T01:11:55.111Z,6.24
2024-03-19T01:12:55.110Z,6.30
2024-03-19T01:13:55.139Z,6.24
2024-03-19T01:14:55.154Z,6.31
2024-03-19T01:15:55.206Z,6.39
2024-03-19T01:16:55.179Z,6.39
2024-03-19T01:17:55.216Z,6.30
2024-03-19T01:18:55.208Z,6.41
2024-03-19T01:19:55.220Z,6.42
2024-03-19T01:20:55.258Z,6.41
2024-03-19T01:21:55.246Z,6.41
2024-03-19T01:22:55.264Z,6.39
2024-03-19T01:23:55.278Z,6.41
2024-03-19T01:24:55.301Z,6.44
2024-03-19T01:25:55.346Z,6.41
2024-03-19T01:26:55.332Z,6.49
2024-03-19T01:27:55.339Z,6.44
2024-03-19T01:28:55.357Z,6.41
2024-03-19T01:29:55.372Z,6.41
2024-03-19T01:30:55.440Z,6.44
2024-03-19T01:31:55.404Z,6.36
2024-03-19T01:32:55.420Z,6.36
2024-03-19T01:33:55.454Z,6.30
2024-03-19T01:34:55.464Z,6.30
2024-03-19T01:35:55.501Z,6.31
2024-03-19T01:36:55.513Z,6.26
2024-03-19T01:37:55.500Z,6.26
2024-03-19T01:38:55.523Z,6.35
2024-03-19T01:39:55.521Z,6.31
2024-03-19T01:40:55.539Z,6.39
2024-03-19T01:41:55.616Z,6.36
2024-03-19T01:42:55.581Z,6.45
2024-03-19T01:43:55.588Z,6.41
2024-03-19T01:44:55.609Z,6.41
2024-03-19T01:45:55.624Z,6.45
2024-03-19T01:46:55.670Z,6.44
2024-03-19T01:47:55.642Z,6.44
2024-03-19T01:48:55.665Z,6.42
2024-03-19T01:49:55.678Z,6.41
2024-03-19T01:50:55.720Z,6.42
2024-03-19T01:51:55.708Z,6.42
2024-03-19T01:52:55.724Z,6.42
2024-03-19T01:53:55.733Z,6.41
2024-03-19T01:54:55.753Z,6.46
2024-03-19T01:55:55.771Z,6.39
2024-03-19T01:56:55.846Z,6.39
2024-03-19T01:57:55.801Z,6.30
2024-03-19T01:58:55.815Z,6.44
2024-03-19T01:59:55.829Z,6.52
2024-03-19T02:00:55.848Z,6.51
2024-03-19T02:01:55.882Z,6.51
2024-03-19T02:02:55.873Z,6.60
2024-03-19T02:03:55.888Z,6.67
2024-03-19T02:04:55.905Z,6.75
2024-03-19T02:05:55.917Z,6.64
2024-03-19T02:06:55.969Z,6.66
2024-03-19T02:07:55.971Z,6.67
2024-03-19T02:08:55.967Z,6.62
2024-03-19T02:09:55.983Z,6.66
2024-03-19T02:10:55.996Z,6.62
2024-03-19T02:11:56.024Z,6.67
2024-03-19T02:12:56.061Z,6.64
2024-03-19T02:13:56.043Z,6.64
2024-03-19T02:14:56.060Z,6.64
2024-03-19T02:15:56.099Z,6.67
2024-03-19T02:16:56.088Z,6.81
2024-03-19T02:17:56.147Z,6.81
2024-03-19T02:18:56.131Z,6.92
2024-03-19T02:19:56.140Z,7.03
2024-03-19T02:20:56.165Z,7.10
2024-03-19T02:21:56.171Z,7.11
2024-03-19T02:22:56.219Z,7.05
2024-03-19T02:23:56.236Z,7.03
2024-03-19T02:24:56.213Z,7.10
2024-03-19T02:25:56.238Z,6.97
2024-03-19T02:26:56.266Z,6.92
2024-03-19T02:27:56.263Z,6.84
2024-03-19T02:28:56.298Z,6.87
2024-03-19T02:29:56.285Z,6.88
2024-03-19T02:30:56.333Z,6.77
2024-03-19T02:31:56.315Z,6.64
2024-03-19T02:32:56.339Z,6.64
2024-03-19T02:33:56.354Z,6.54
2024-03-19T02:34:56.392Z,6.62
2024-03-19T02:35:56.378Z,6.46
2024-03-19T02:36:56.398Z,6.46
2024-03-19T02:37:56.419Z,6.49
2024-03-19T02:38:56.430Z,6.56
2024-03-19T02:39:56.504Z,6.51
2024-03-19T02:40:56.463Z,6.51
2024-03-19T02:41:56.475Z,6.51
2024-03-19T02:42:56.488Z,6.60
2024-03-19T02:43:56.502Z,6.57
2024-03-19T02:44:56.553Z,6.51
2024-03-19T02:45:56.536Z,6.57
2024-03-19T02:46:56.583Z,6.56
2024-03-19T02:47:56.564Z,6.59
2024-03-19T02:48:56.594Z,6.59
2024-03-19T02:49:56.602Z,6.59
2024-03-19T02:50:56.647Z,6.56
2024-03-19T02:51:56.657Z,6.57
2024-03-19T02:52:56.651Z,6.60
2024-03-19T02:53:56.663Z,6.56
2024-03-19T02:54:56.677Z,6.48
2024-03-19T02:55:56.694Z,6.49
2024-03-19T02:56:56.750Z,6.60
2024-03-19T02:57:56.725Z,6.67
2024-03-19T02:58:56.770Z,6.66
2024-03-19T02:59:56.790Z,6.64
2024-03-19T03:00:56.782Z,6.63
2024-03-19T03:01:56.809Z,6.69
2024-03-19T03:02:56.802Z,6.69
2024-03-19T03:03:56.814Z,6.64
2024-03-19T03:04:56.833Z,6.64
2024-03-19T03:05:56.849Z,6.66
2024-03-19T03:06:56.895Z,6.51
2024-03-19T03:07:56.875Z,6.51
2024-03-19T03:08:56.919Z,6.36
2024-03-19T03:09:56.905Z,6.28
2024-03-19T03:10:56.965Z,6.30
2024-03-19T03:11:56.942Z,6.35
2024-03-19T03:12:56.953Z,6.26
2024-03-19T03:13:57.012Z,6.31
2024-03-19T03:14:56.989Z,6.30
2024-03-19T03:15:56.997Z,6.38
2024-03-19T03:16:57.023Z,6.33
2024-03-19T03:17:57.558Z,6.30
2024-03-19T03:18:57.101Z,6.33
2024-03-19T03:19:57.066Z,6.36
2024-03-19T03:20:57.073Z,6.35
2024-03-19T03:21:57.093Z,6.31
2024-03-19T03:22:57.112Z,6.33
2024-03-19T03:23:57.147Z,6.42
2024-03-19T03:24:57.133Z,6.41
2024-03-19T03:25:57.159Z,6.41
2024-03-19T03:26:57.213Z,6.36
2024-03-19T03:27:57.201Z,6.30
2024-03-19T03:28:57.196Z,6.33
2024-03-19T03:29:57.214Z,6.36
2024-03-19T03:30:57.287Z,6.35
2024-03-19T03:31:57.246Z,6.30
2024-03-19T03:32:57.258Z,6.30
2024-03-19T03:33:57.274Z,6.28
2024-03-19T03:34:57.296Z,6.27
2024-03-19T03:35:57.423Z,6.30
2024-03-19T03:37:00.582Z,6.33
2024-03-19T03:37:57.343Z,6.33
2024-03-19T03:38:57.349Z,6.42
2024-03-19T03:39:57.365Z,6.36
2024-03-19T03:40:57.382Z,6.39
2024-03-19T03:41:57.412Z,6.33
2024-03-19T03:43:00.746Z,6.30
2024-03-19T03:43:57.427Z,6.39
2024-03-19T03:44:57.440Z,6.39
2024-03-19T03:45:57.500Z,6.36
2024-03-19T03:46:57.494Z,6.28
2024-03-19T03:47:57.493Z,6.31
2024-03-19T03:48:57.505Z,6.30
2024-03-19T03:49:57.520Z,6.20
2024-03-19T03:50:57.533Z,6.31
2024-03-19T03:51:57.581Z,6.33
2024-03-19T03:52:57.584Z,6.35
2024-03-19T03:53:57.577Z,6.31
2024-03-19T03:54:57.599Z,6.30
2024-03-19T03:55:57.671Z,6.27
2024-03-19T03:56:57.648Z,6.27
2024-03-19T03:57:57.668Z,6.26
2024-03-19T03:58:57.657Z,6.31
2024-03-19T03:59:57.672Z,6.31
2024-03-19T04:00:57.678Z,6.26
2024-03-19T04:01:57.723Z,6.36
2024-03-19T04:02:57.741Z,6.27
2024-03-19T04:03:57.728Z,6.36
2024-03-19T04:04:57.745Z,6.24
2024-03-19T04:05:57.788Z,6.14
2024-03-19T04:06:57.778Z,6.22
2024-03-19T04:07:57.821Z,6.24
2024-03-19T04:08:57.802Z,6.19
2024-03-19T04:09:57.814Z,6.24
2024-03-19T04:10:57.840Z,6.27
2024-03-19T04:11:57.852Z,6.20
2024-03-19T04:12:57.883Z,6.26
2024-03-19T04:13:57.900Z,6.26
2024-03-19T04:14:57.886Z,6.20
2024-03-19T04:15:57.903Z,6.19
2024-03-19T04:16:57.919Z,6.26
2024-03-19T04:17:57.954Z,6.24
2024-03-19T04:18:57.954Z,6.22
2024-03-19T04:19:57.966Z,6.16
2024-03-19T04:20:58.013Z,6.08
2024-03-19T04:21:57.993Z,6.12
2024-03-19T04:22:58.008Z,6.22
2024-03-19T04:23:58.073Z,6.16
2024-03-19T04:24:58.036Z,6.19
2024-03-19T04:25:58.053Z,6.16
2024-03-19T04:26:58.069Z,6.28
2024-03-19T04:27:58.084Z,6.16
2024-03-19T04:28:58.134Z,6.30
2024-03-19T04:29:58.141Z,6.26
2024-03-19T04:30:58.138Z,6.17
2024-03-19T04:31:58.145Z,6.19
2024-03-19T04:32:58.160Z,6.12
2024-03-19T04:34:03.645Z,6.20
2024-03-19T04:34:58.237Z,6.14
2024-03-19T04:35:58.211Z,6.16
2024-03-19T04:36:58.222Z,6.24
2024-03-19T04:37:58.288Z,6.17
2024-03-19T04:38:58.249Z,6.19
2024-03-19T04:39:58.301Z,6.14
2024-03-19T04:40:58.308Z,6.16
2024-03-19T04:41:58.463Z,6.26
2024-03-19T04:42:58.316Z,6.12
2024-03-19T04:43:58.332Z,6.24
2024-03-19T04:44:58.380Z,6.11
2024-03-19T04:45:58.397Z,6.17
2024-03-19T04:46:58.371Z,6.22
2024-03-19T04:47:58.395Z,6.14
2024-03-19T04:48:58.423Z,6.30
2024-03-19T04:49:58.421Z,6.17
2024-03-19T04:50:58.457Z,6.26
2024-03-19T04:51:58.481Z,6.19
2024-03-19T04:52:58.486Z,6.20
2024-03-19T04:53:58.482Z,6.24
2024-03-19T04:54:58.494Z,6.30
2024-03-19T04:55:58.549Z,6.26
2024-03-19T04:56:58.562Z,6.30
2024-03-19T04:57:58.550Z,6.27
2024-03-19T04:58:58.553Z,6.31
2024-03-19T04:59:58.570Z,6.17
2024-03-19T05:00:58.610Z,6.20
2024-03-19T05:01:58.601Z,6.17
2024-03-19T05:02:58.639Z,6.19
2024-03-19T05:03:58.628Z,6.17
2024-03-19T05:04:58.643Z,6.19
2024-03-19T05:05:58.662Z,6.22
2024-03-19T05:06:58.712Z,6.19
2024-03-19T05:07:58.728Z,6.30
2024-03-19T05:08:58.704Z,6.22
2024-03-19T05:09:58.730Z,6.22
2024-03-19T05:10:58.796Z,6.31
2024-03-19T05:11:58.777Z,6.19
2024-03-19T05:12:58.862Z,6.33
2024-03-19T05:13:58.787Z,6.28
2024-03-19T05:14:58.810Z,6.27
2024-03-19T05:15:58.831Z,6.28
2024-03-19T05:16:58.866Z,6.30
2024-03-19T05:17:58.893Z,6.35
2024-03-19T05:18:58.898Z,6.30
2024-03-19T05:19:58.871Z,6.33
2024-03-19T05:20:58.898Z,6.26
2024-03-19T05:21:58.919Z,6.26
2024-03-19T05:22:58.984Z,6.26
2024-03-19T05:23:58.972Z,6.26
2024-03-19T05:24:58.963Z,6.26
2024-03-19T05:25:58.959Z,6.26
2024-03-19T05:26:58.975Z,6.31
2024-03-19T05:27:59.016Z,6.31
2024-03-19T05:28:59.009Z,6.27
2024-03-19T05:29:59.019Z,6.30
2024-03-19T05:30:59.050Z,6.31
2024-03-19T05:31:59.050Z,6.41
2024-03-19T05:32:59.101Z,6.30
2024-03-19T05:33:59.081Z,6.31
2024-03-19T05:34:59.093Z,6.33
2024-03-19T05:35:59.111Z,6.28
2024-03-19T05:36:59.127Z,6.38
2024-03-19T05:37:59.136Z,6.30
2024-03-19T05:38:59.209Z,6.28
2024-03-19T05:39:59.184Z,6.31
2024-03-19T05:40:59.197Z,6.39
2024-03-19T05:41:59.205Z,6.42
2024-03-19T05:42:59.240Z,6.42
2024-03-19T05:44:00.923Z,6.41
2024-03-19T05:44:59.271Z,6.39
2024-03-19T05:45:59.270Z,6.45
2024-03-19T05:46:59.296Z,6.54
2024-03-19T05:47:59.307Z,6.56
2024-03-19T05:48:59.337Z,6.56
2024-03-19T05:49:59.357Z,6.56
2024-03-19T05:50:59.341Z,6.52
2024-03-19T05:51:59.349Z,6.56
2024-03-19T05:52:59.394Z,6.56
2024-03-19T05:54:00.004Z,6.64
2024-03-19T05:54:59.409Z,6.63
2024-03-19T05:55:59.415Z,6.62
2024-03-19T05:56:59.433Z,6.49
2024-03-19T05:57:59.442Z,6.51
2024-03-19T05:58:59.492Z,6.51
2024-03-19T06:00:00.346Z,6.46
2024-03-19T06:00:59.499Z,6.64
2024-03-19T06:01:59.503Z,6.63
2024-03-19T06:02:59.521Z,6.63
2024-03-19T06:03:59.564Z,6.64
2024-03-19T06:04:59.590Z,6.63
2024-03-19T06:05:59.577Z,6.52
2024-03-19T06:06:59.591Z,6.54
2024-03-19T06:07:59.598Z,6.54
2024-03-19T06:08:59.617Z,6.51
2024-03-19T06:09:59.653Z,6.56
2024-03-19T06:10:59.675Z,6.54
2024-03-19T06:11:59.660Z,6.52
2024-03-19T06:12:59.709Z,6.63
2024-03-19T06:13:59.686Z,6.57
2024-03-19T06:14:59.712Z,6.56
2024-03-19T06:15:59.748Z,6.54
2024-03-19T06:16:59.737Z,6.62
2024-03-19T06:17:59.754Z,6.54
2024-03-19T06:19:02.075Z,6.51
2024-03-19T06:19:59.782Z,6.56
2024-03-19T06:20:59.829Z,6.52
2024-03-19T06:21:59.812Z,6.56
2024-03-19T06:22:59.832Z,6.51
2024-03-19T06:24:02.270Z,6.49
2024-03-19T06:25:00.585Z,6.62
2024-03-19T06:25:59.956Z,6.49
2024-03-19T06:27:00.250Z,6.57
2024-03-19T06:28:00.793Z,6.51
2024-03-19T06:29:00.044Z,6.64
2024-03-19T06:30:00.292Z,6.64
2024-03-19T06:31:00.380Z,6.66
2024-03-19T06:32:00.787Z,6.67
2024-03-19T06:33:00.604Z,6.66
2024-03-19T06:34:00.368Z,6.72
2024-03-19T06:35:00.193Z,6.74
2024-03-19T06:36:00.299Z,6.74
2024-03-19T06:37:00.320Z,6.78
2024-03-19T06:38:00.217Z,6.81
2024-03-19T06:39:01.303Z,6.74
2024-03-19T06:40:01.009Z,6.74
2024-03-19T06:41:00.255Z,6.84
2024-03-19T06:42:00.504Z,6.84
2024-03-19T06:43:00.357Z,6.77
2024-03-19T06:44:00.344Z,6.84
2024-03-19T06:45:02.512Z,6.78
2024-03-19T06:46:04.031Z,6.84
2024-03-19T06:47:01.092Z,6.81
2024-03-19T06:48:00.661Z,6.66
2024-03-19T06:49:02.018Z,6.66
2024-03-19T06:50:02.030Z,6.69
2024-03-19T06:51:01.542Z,6.64
2024-03-19T06:52:00.357Z,6.70
2024-03-19T06:53:01.314Z,6.67
2024-03-19T06:54:01.509Z,6.63
2024-03-19T06:55:05.093Z,6.81
2024-03-19T06:56:01.035Z,6.82
2024-03-19T06:57:01.705Z,6.72
2024-03-19T06:58:02.604Z,6.87
2024-03-19T06:59:00.870Z,6.79
2024-03-19T07:00:01.727Z,6.81
2024-03-19T07:01:12.242Z,6.78
2024-03-19T07:02:00.742Z,6.87
2024-03-19T07:03:01.408Z,6.77
2024-03-19T07:04:06.927Z,6.89
2024-03-19T07:05:01.190Z,6.87
2024-03-19T07:06:03.575Z,6.88
2024-03-19T07:07:03.536Z,6.88
2024-03-19T07:08:02.317Z,6.97
2024-03-19T07:09:01.373Z,6.89
2024-03-19T07:10:02.560Z,6.96
2024-03-19T07:11:03.512Z,7.02
2024-03-19T07:12:02.526Z,7.05
2024-03-19T07:13:02.027Z,7.10
2024-03-19T07:14:02.060Z,7.06
2024-03-19T07:15:00.709Z,7.13
2024-03-19T07:16:01.963Z,7.10
2024-03-19T07:17:00.695Z,7.20
2024-03-19T07:18:00.750Z,7.18
2024-03-19T07:19:00.721Z,7.17
2024-03-19T07:20:00.731Z,7.23
2024-03-19T07:21:00.756Z,7.21
2024-03-19T07:22:15.975Z,7.18
2024-03-19T07:23:00.777Z,7.31
2024-03-19T07:24:00.793Z,7.31
2024-03-19T07:25:00.894Z,7.35
2024-03-19T07:26:00.860Z,7.40
2024-03-19T07:27:03.747Z,7.51
2024-03-19T07:28:00.858Z,7.48
2024-03-19T07:29:00.909Z,7.57
2024-03-19T07:30:00.895Z,7.66
2024-03-19T07:31:00.912Z,7.76
2024-03-19T07:32:01.162Z,7.79
2024-03-19T07:33:01.071Z,7.82
2024-03-19T07:34:00.983Z,7.77
2024-03-19T07:35:00.998Z,7.87
2024-03-19T07:36:01.007Z,7.91
2024-03-19T07:37:01.036Z,7.88
2024-03-19T07:38:01.163Z,8.00
2024-03-19T07:39:01.149Z,8.05
2024-03-19T07:40:01.104Z,8.06
2024-03-19T07:41:01.091Z,8.06
2024-03-19T07:42:01.264Z,8.09
2024-03-19T07:43:01.300Z,8.08
2024-03-19T07:44:01.130Z,8.05
2024-03-19T07:45:01.179Z,8.13
2024-03-19T07:46:01.172Z,8.16
2024-03-19T07:47:01.240Z,8.18
2024-03-19T07:48:01.297Z,8.23
2024-03-19T07:49:02.585Z,8.19
2024-03-19T07:50:01.291Z,8.19
2024-03-19T07:51:01.244Z,8.27
2024-03-19T07:52:04.037Z,8.34
2024-03-19T07:53:01.369Z,8.41
2024-03-19T07:54:01.345Z,8.30
2024-03-19T07:55:02.182Z,8.31
2024-03-19T07:56:01.497Z,8.33
2024-03-19T07:57:01.361Z,8.37
2024-03-19T07:58:01.370Z,8.33
2024-03-19T07:59:01.552Z,8.37
2024-03-19T08:00:01.410Z,8.37
2024-03-19T08:01:01.457Z,8.36
2024-03-19T08:02:02.244Z,8.33
2024-03-19T08:03:01.460Z,8.30
2024-03-19T08:04:05.742Z,8.33
2024-03-19T08:05:01.489Z,8.42
2024-03-19T08:06:01.615Z,8.34
2024-03-19T08:07:01.537Z,8.38
2024-03-19T08:08:01.559Z,8.37
2024-03-19T08:09:01.561Z,8.45
2024-03-19T08:10:01.605Z,8.56
2024-03-19T08:11:01.620Z,8.33
2024-03-19T08:12:01.639Z,8.30
2024-03-19T08:13:01.639Z,8.31
2024-03-19T08:14:01.645Z,8.44
2024-03-19T08:15:01.701Z,8.53
2024-03-19T08:16:01.773Z,8.44
2024-03-19T08:17:01.701Z,8.49
2024-03-19T08:18:01.724Z,8.53
2024-03-19T08:19:01.745Z,8.58
2024-03-19T08:20:01.763Z,8.64
2024-03-19T08:21:03.514Z,8.63
2024-03-19T08:22:01.808Z,8.70
2024-03-19T08:23:01.834Z,8.71
2024-03-19T08:24:01.856Z,8.79
2024-03-19T08:25:01.860Z,8.79
2024-03-19T08:26:01.901Z,8.88
2024-03-19T08:27:01.899Z,8.91
2024-03-19T08:28:01.886Z,8.97
2024-03-19T08:29:01.935Z,8.92
2024-03-19T08:30:01.991Z,8.85
2024-03-19T08:31:01.963Z,8.92
2024-03-19T08:32:01.962Z,8.97
2024-03-19T08:33:02.005Z,8.87
2024-03-19T08:34:02.041Z,8.88
2024-03-19T08:35:02.021Z,8.84
2024-03-19T08:36:02.102Z,8.88
2024-03-19T08:37:02.344Z,8.92
2024-03-19T08:38:02.067Z,8.87
2024-03-19T08:39:02.131Z,8.88
2024-03-19T08:40:02.174Z,9.03
2024-03-19T08:41:02.124Z,8.97
2024-03-19T08:42:05.235Z,9.06
2024-03-19T08:43:02.153Z,9.13
2024-03-19T08:44:02.221Z,9.21
2024-03-19T08:45:02.187Z,9.34
2024-03-19T08:46:02.211Z,9.36
2024-03-19T08:47:02.260Z,9.34
2024-03-19T08:48:02.252Z,9.34
2024-03-19T08:49:02.294Z,9.26
2024-03-19T08:50:02.318Z,9.25
2024-03-19T08:51:02.317Z,9.39
2024-03-19T08:52:02.328Z,9.37
2024-03-19T08:53:02.335Z,9.41
2024-03-19T08:54:02.520Z,9.44
2024-03-19T08:55:02.716Z,9.47
2024-03-19T08:56:02.413Z,9.64
2024-03-19T08:57:02.527Z,9.62
2024-03-19T08:58:02.420Z,9.65
2024-03-19T08:59:02.462Z,9.69
2024-03-19T09:00:02.472Z,9.58
2024-03-19T09:01:02.515Z,9.47
2024-03-19T09:02:02.492Z,9.50
2024-03-19T09:03:02.560Z,9.61
2024-03-19T09:04:02.561Z,9.51
2024-03-19T09:05:02.603Z,9.61
2024-03-19T09:06:02.628Z,9.55
2024-03-19T09:07:02.598Z,9.55
2024-03-19T09:08:02.604Z,9.58
2024-03-19T09:09:02.622Z,9.64
2024-03-19T09:10:02.701Z,9.73
2024-03-19T09:11:02.734Z,9.68
2024-03-19T09:12:02.832Z,9.79
2024-03-19T09:13:02.788Z,9.79
2024-03-19T09:14:02.715Z,9.77
2024-03-19T09:15:02.752Z,9.77
2024-03-19T09:16:02.820Z,9.77
2024-03-19T09:17:02.858Z,9.83
2024-03-19T09:18:02.824Z,9.80
2024-03-19T09:19:02.812Z,9.94
2024-03-19T09:20:02.879Z,9.89
2024-03-19T09:21:02.977Z,9.89
2024-03-19T09:22:03.017Z,10.04
2024-03-19T09:23:03.012Z,10.15
2024-03-19T09:24:02.906Z,10.35
2024-03-19T09:25:05.437Z,10.42
2024-03-19T09:26:02.960Z,10.60
2024-03-19T09:27:03.007Z,10.63
2024-03-19T09:28:03.066Z,10.69
2024-03-19T09:29:05.544Z,10.75
2024-03-19T09:30:03.053Z,10.90
2024-03-19T09:31:03.055Z,11.04
2024-03-19T09:32:03.053Z,11.12
2024-03-19T09:33:03.146Z,11.27
2024-03-19T09:34:03.112Z,11.29
2024-03-19T09:35:03.676Z,11.32
2024-03-19T09:36:03.135Z,11.35
2024-03-19T09:37:03.147Z,11.22
2024-03-19T09:38:03.246Z,11.22
2024-03-19T09:39:03.203Z,11.17
2024-03-19T09:40:04.214Z,11.36
2024-03-19T09:41:03.228Z,11.33
2024-03-19T09:42:03.246Z,11.30
2024-03-19T09:43:03.322Z,11.37
2024-03-19T09:44:03.297Z,11.36
2024-03-19T09:45:03.313Z,11.32
2024-03-19T09:46:08.078Z,11.37
2024-03-19T09:47:03.350Z,11.30
2024-03-19T09:48:06.181Z,11.22
2024-03-19T09:49:03.414Z,11.17
2024-03-19T09:50:03.466Z,11.18
2024-03-19T09:51:03.442Z,11.27
2024-03-19T09:52:03.585Z,11.26
2024-03-19T09:53:03.464Z,11.29
2024-03-19T09:54:05.679Z,11.33
2024-03-19T09:55:03.510Z,11.35
2024-03-19T09:56:03.547Z,11.36
2024-03-19T09:57:03.556Z,11.37
2024-03-19T09:58:03.569Z,11.41
2024-03-19T09:59:03.626Z,11.37
2024-03-19T10:00:03.623Z,11.41
2024-03-19T10:01:03.652Z,11.37
2024-03-19T10:02:03.660Z,11.30
2024-03-19T10:03:03.915Z,11.35
2024-03-19T10:04:03.790Z,11.36
2024-03-19T10:05:03.732Z,11.33
2024-03-19T10:06:03.845Z,11.29
2024-03-19T10:07:03.755Z,11.37
2024-03-19T10:08:03.797Z,11.47
2024-03-19T10:09:03.910Z,11.60
2024-03-19T10:10:03.853Z,11.66
2024-03-19T10:11:03.830Z,11.88
2024-03-19T10:12:03.877Z,12.09
2024-03-19T10:13:03.887Z,12.25
2024-03-19T10:14:03.907Z,12.37
2024-03-19T10:15:03.943Z,12.47
2024-03-19T10:16:03.979Z,12.54
2024-03-19T10:17:03.949Z,12.67
2024-03-19T10:18:04.029Z,12.68
2024-03-19T10:19:04.032Z,12.80
2024-03-19T10:20:04.020Z,12.79
2024-03-19T10:21:04.056Z,12.78
2024-03-19T10:22:04.069Z,12.60
2024-03-19T10:23:04.079Z,12.50
2024-03-19T10:24:04.141Z,12.49
2024-03-19T10:25:04.159Z,12.45
2024-03-19T10:26:04.221Z,12.46
2024-03-19T10:27:04.160Z,12.49
2024-03-19T10:28:04.202Z,12.64
2024-03-19T10:29:04.257Z,12.55
2024-03-19T14:48:22.529Z,15.90
2024-03-19T14:49:22.531Z,15.95
2024-03-19T14:50:22.565Z,15.91
2024-03-19T14:51:22.569Z,15.95
2024-03-19T14:52:22.690Z,16.00
2024-03-19T14:53:22.627Z,16.09
2024-03-19T14:54:22.720Z,16.83
2024-03-19T14:55:22.718Z,17.72
2024-03-19T14:56:22.792Z,17.80
2024-03-19T14:57:22.731Z,17.74
2024-03-19T14:58:22.770Z,17.95
2024-03-19T14:59:22.821Z,18.11
2024-03-19T15:00:22.833Z,17.95
2024-03-19T15:01:22.845Z,17.72
2024-03-19T15:02:22.886Z,17.34
2024-03-19T15:03:23.040Z,17.14
2024-03-19T15:04:22.958Z,17.31
2024-03-19T15:05:22.965Z,17.24
2024-03-19T15:06:23.021Z,17.16
2024-03-19T15:07:23.042Z,16.94
2024-03-19T15:08:23.040Z,16.72
2024-03-19T15:09:23.098Z,16.51
2024-03-19T15:10:23.098Z,16.31
2024-03-19T15:11:23.130Z,15.98
2024-03-19T15:12:23.150Z,15.90
2024-03-19T15:13:23.194Z,15.68
2024-03-19T15:14:23.212Z,15.52
2024-03-19T15:15:23.233Z,15.43
2024-03-19T15:16:23.261Z,15.27
2024-03-19T15:17:23.298Z,15.19
2024-03-19T15:18:23.313Z,15.21
2024-03-19T15:19:23.359Z,15.28
2024-03-19T15:20:23.371Z,15.28
2024-03-19T15:21:23.459Z,15.11
2024-03-19T15:22:23.418Z,15.24
2024-03-19T15:23:23.450Z,15.35
2024-03-19T15:24:23.462Z,15.44
2024-03-19T15:25:23.972Z,15.51
2024-03-19T15:26:23.546Z,15.52
2024-03-19T15:27:23.553Z,15.19
2024-03-19T15:28:23.581Z,15.11
2024-03-19T15:29:23.591Z,15.03
2024-03-19T15:30:23.628Z,15.03
2024-03-19T15:31:23.639Z,14.99
2024-03-19T15:32:32.371Z,15.06
2024-03-19T15:33:23.683Z,15.15
2024-03-19T15:34:23.704Z,15.14
2024-03-19T15:35:25.742Z,15.04
2024-03-19T15:36:23.767Z,14.91
2024-03-19T15:37:23.780Z,14.89
2024-03-19T15:38:23.828Z,14.92
2024-03-19T15:39:23.846Z,14.94
2024-03-19T15:40:23.873Z,14.91
2024-03-19T15:41:23.962Z,14.91
2024-03-19T15:42:23.905Z,14.91
2024-03-19T15:43:23.912Z,14.91
2024-03-19T15:44:23.959Z,14.89
2024-03-19T15:45:23.982Z,14.89
2024-03-19T15:46:23.998Z,14.85
2024-03-19T15:47:24.022Z,14.78
2024-03-19T15:48:24.033Z,14.73
2024-03-19T15:49:24.096Z,14.81
2024-03-19T15:50:24.096Z,14.72
2024-03-19T15:51:24.118Z,14.78
2024-03-19T15:52:24.154Z,14.81
2024-03-19T15:53:24.182Z,14.86
2024-03-19T15:54:24.184Z,14.84
2024-03-19T15:55:24.468Z,14.86
2024-03-19T15:56:24.240Z,14.85
2024-03-19T15:57:24.256Z,14.81
2024-03-19T15:58:24.267Z,14.88
2024-03-19T15:59:24.289Z,14.89
2024-03-19T16:00:24.351Z,14.88
2024-03-19T16:01:24.349Z,14.88
2024-03-19T16:02:24.355Z,14.91
2024-03-19T16:03:24.375Z,14.86
2024-03-19T16:04:24.407Z,14.89
2024-03-19T16:05:24.422Z,14.85
2024-03-19T16:06:24.453Z,14.85
2024-03-19T16:07:24.477Z,14.89
2024-03-19T16:08:24.498Z,14.92
2024-03-19T16:09:24.532Z,14.96
2024-03-19T16:10:24.534Z,14.85
2024-03-19T16:11:24.607Z,14.91
2024-03-19T16:12:24.614Z,14.88
2024-03-19T16:13:24.603Z,14.86
2024-03-19T16:14:24.640Z,14.92
2024-03-19T16:15:24.642Z,14.92
2024-03-19T16:16:24.674Z,14.89
2024-03-19T16:17:24.698Z,14.85
2024-03-19T16:18:24.706Z,14.79
2024-03-19T16:19:24.772Z,14.79
2024-03-19T16:20:24.757Z,14.78
2024-03-19T16:21:24.781Z,14.63
2024-03-19T16:22:24.825Z,14.62
2024-03-19T16:23:24.819Z,14.72
2024-03-19T16:24:24.856Z,14.82
2024-03-19T16:25:24.892Z,14.62
2024-03-19T16:26:24.891Z,14.66
2024-03-19T16:27:24.926Z,14.66
2024-03-19T16:28:24.931Z,14.63
2024-03-19T16:29:24.964Z,14.60
2024-03-19T16:30:24.968Z,14.58
2024-03-19T16:31:25.005Z,14.60
2024-03-19T16:32:25.018Z,14.59
2024-03-19T16:33:25.064Z,14.51
2024-03-19T16:34:25.064Z,14.53
2024-03-19T16:35:25.084Z,14.55
2024-03-19T16:36:25.130Z,14.43
2024-03-19T16:37:25.298Z,14.43
2024-03-19T16:38:25.150Z,14.35
2024-03-19T16:39:25.175Z,14.29
2024-03-19T16:40:25.194Z,14.30
2024-03-19T16:41:25.208Z,14.14
2024-03-19T16:42:25.258Z,14.26
2024-03-19T16:43:25.268Z,14.14
2024-03-19T16:44:25.284Z,14.22
2024-03-19T16:45:25.300Z,14.18
2024-03-19T16:46:25.324Z,14.20
2024-03-19T16:47:25.379Z,14.20
2024-03-19T16:48:25.366Z,14.23
2024-03-19T16:49:25.428Z,14.22
2024-03-19T16:50:25.412Z,14.18
2024-03-19T16:51:25.481Z,14.22
2024-03-19T16:52:25.479Z,14.25
2024-03-19T16:53:25.491Z,14.10
2024-03-19T16:54:25.501Z,14.03
2024-03-19T16:55:25.524Z,13.99
2024-03-19T16:56:25.543Z,13.92
2024-03-19T16:57:25.924Z,13.95
2024-03-19T16:58:25.593Z,13.96
2024-03-19T16:59:25.618Z,13.93
2024-03-19T17:00:25.657Z,13.93
2024-03-19T17:01:25.650Z,13.93
2024-03-19T17:02:25.686Z,13.95
2024-03-19T17:03:25.696Z,13.95
2024-03-19T17:04:25.716Z,13.92
2024-03-19T17:05:25.740Z,13.90
2024-03-19T17:06:25.756Z,13.85
2024-03-19T17:07:25.777Z,13.89
2024-03-19T17:08:25.845Z,13.75
2024-03-19T17:09:25.821Z,13.65
2024-03-19T17:10:25.842Z,13.71
2024-03-19T17:11:25.870Z,13.72
2024-03-19T17:12:25.897Z,13.71
2024-03-19T17:13:25.916Z,13.67
2024-03-19T17:14:25.939Z,13.67
2024-03-19T17:15:25.966Z,13.74
2024-03-19T17:16:25.986Z,13.71
2024-03-19T17:17:25.993Z,13.65
2024-03-19T17:18:26.025Z,13.68
2024-03-19T17:19:26.056Z,13.63
2024-03-19T17:20:26.055Z,13.50
2024-03-19T17:21:26.077Z,13.42
2024-03-19T17:22:26.102Z,13.41
2024-03-19T17:23:26.139Z,13.52
2024-03-19T17:24:26.156Z,13.46
2024-03-19T17:25:26.157Z,13.46
2024-03-19T17:26:26.186Z,13.38
2024-03-19T17:27:26.205Z,13.28
2024-03-19T17:28:26.242Z,13.27
2024-03-19T17:30:26.276Z,13.09